Time;durP1;ratioP1;P1;durP2;ratioP2;P2;SDS_P1;SDS_P2;PMS_P1;PMS_P2;Temp;Humidity;BMP_temperature;BMP_pressure;BME280_temperature;BME280_humidity;BME280_pressure;Samples;Min_cycle;Max_cycle;Signal;HPM_P1;HPM_P2
2022/05/16 00:00:26;;;;;;;4.15;2.58;;;;;;;25.32;27.73;101027.13;5042950;28;20041;-73
2022/05/16 00:02:55;;;;;;;4.50;2.90;;;;;;;25.25;27.48;101026.19;5050948;28;20048;-74
2022/05/16 00:05:23;;;;;;;4.45;2.33;;;;;;;25.24;27.08;101024.47;5068221;28;20044;-74
2022/05/16 00:07:49;;;;;;;4.45;2.33;;;;;;;25.21;27.49;101013.72;5048868;28;20086;-74
2022/05/16 00:10:16;;;;;;;4.70;2.35;;;;;;;25.20;27.20;101023.16;5054120;28;20109;-74
2022/05/16 00:12:43;;;;;;;4.85;2.65;;;;;;;25.17;27.22;101024.38;5053583;28;20040;-74
2022/05/16 00:15:13;;;;;;;4.75;2.90;;;;;;;25.16;27.26;101019.88;5055931;28;20490;-74
2022/05/16 00:17:40;;;;;;;6.30;2.40;;;;;;;25.12;27.17;101021.31;5053437;28;20044;-74
2022/05/16 00:20:08;;;;;;;4.50;2.60;;;;;;;25.11;27.64;101014.06;5051421;28;20053;-75
2022/05/16 00:22:35;;;;;;;6.07;2.65;;;;;;;25.10;27.23;101014.25;5053159;28;20067;-75
2022/05/16 00:25:06;;;;;;;5.32;2.70;;;;;;;25.10;27.29;101014.25;5061792;28;20105;-74
2022/05/16 00:27:34;;;;;;;;;;;;;;;24.79;27.60;101011.63;5047504;28;20124;-74
2022/05/16 00:30:06;;;;;;;4.47;2.13;;;;;;;25.04;27.42;101013.06;5049997;28;19965;-75
2022/05/16 00:32:33;;;;;;;4.95;2.47;;;;;;;25.00;27.84;101011.75;5052951;28;20449;-74
2022/05/16 00:35:00;;;;;;;4.90;2.47;;;;;;;25.01;27.89;101005.16;5051978;28;20037;-75
2022/05/16 00:37:27;;;;;;;5.10;2.72;;;;;;;25.00;27.76;101011.75;5052872;28;20090;-74
2022/05/16 00:39:54;;;;;;;5.53;2.63;;;;;;;24.97;27.45;101001.88;5049840;28;20524;-74
2022/05/16 00:42:21;;;;;;;4.18;2.55;;;;;;;24.96;27.97;101011.25;5045843;28;20147;-74
2022/05/16 00:44:47;;;;;;;4.63;3.00;;;;;;;24.95;27.97;101000.38;5048921;28;20521;-75
2022/05/16 00:47:14;;;;;;;5.53;2.83;;;;;;;24.93;27.79;101002.47;5045537;28;20055;-75
2022/05/16 00:49:43;;;;;;;5.13;2.60;;;;;;;24.92;27.70;101000.75;5056926;28;20048;-75
2022/05/16 00:52:17;;;;;;;4.70;2.50;;;;;;;24.92;27.81;101007.16;5034985;28;20048;-75
2022/05/16 00:54:56;;;;;;;4.45;2.70;;;;;;;24.90;28.06;100998.13;5048899;28;20041;-74
2022/05/16 00:57:25;;;;;;;5.15;2.50;;;;;;;24.85;27.94;101000.63;5072726;28;20052;-75
2022/05/16 01:00:02;;;;;;;5.00;2.40;;;;;;;24.86;27.77;100998.72;5065519;28;20060;-74
2022/05/16 01:05:16;;;;;;;4.70;2.60;;;;;;;24.78;27.74;101001.59;5051643;28;20051;-74
2022/05/16 01:07:45;;;;;;;4.22;2.78;;;;;;;24.78;27.80;100990.47;5052111;28;20110;-74
2022/05/16 01:10:15;;;;;;;3.92;2.35;;;;;;;24.78;27.94;100987.69;5042276;28;20045;-74
2022/05/16 01:12:46;;;;;;;6.93;2.88;;;;;;;24.76;27.91;100989.78;5047895;28;20053;-75
2022/05/16 01:15:37;;;;;;;4.22;2.83;;;;;;;24.75;28.23;100990.84;5062332;28;20459;-74
2022/05/16 01:18:05;;;;;;;4.63;2.58;;;;;;;24.71;28.26;100990.34;4933891;29;20052;-75
2022/05/16 01:20:51;;;;;;;5.30;2.47;;;;;;;24.71;28.82;100995.06;4936065;28;20051;-75
2022/05/16 01:23:20;;;;;;;4.93;2.53;;;;;;;24.69;28.76;100995.25;4946904;29;20051;-75
2022/05/16 01:25:49;;;;;;;5.45;2.55;;;;;;;24.69;28.53;100998.03;4931455;28;20050;-74
2022/05/16 01:28:19;;;;;;;3.95;2.40;;;;;;;24.68;28.50;100987.97;4930759;29;20457;-74
2022/05/16 01:30:50;;;;;;;4.68;2.47;;;;;;;24.68;28.84;100984.34;4934647;28;20517;-74
2022/05/16 01:33:20;;;;;;;4.47;2.42;;;;;;;24.64;28.30;100984.72;4938532;29;20043;-74
2022/05/16 01:35:47;;;;;;;3.63;2.50;;;;;;;24.62;28.79;100988.75;4935268;28;20460;-74
2022/05/16 01:38:18;;;;;;;4.75;2.70;;;;;;;24.60;28.77;100986.16;4931219;29;20643;-75
2022/05/16 01:40:51;;;;;;;4.50;2.60;;;;;;;24.60;28.68;100980.59;4932583;29;20051;-73
2022/05/16 01:43:19;;;;;;;3.95;2.50;;;;;;;24.57;28.73;100982.88;4930896;29;20059;-74
2022/05/16 01:45:52;;;;;;;3.80;2.47;;;;;;;24.59;28.74;100987.22;4954259;28;20142;-75
2022/05/16 01:48:20;;;;;;;4.55;2.60;;;;;;;24.55;28.87;100987.75;4934045;29;20058;-74
2022/05/16 01:50:48;;;;;;;4.60;2.53;;;;;;;24.55;28.50;100984.97;4918945;28;20052;-75
2022/05/16 01:53:17;;;;;;;4.53;2.50;;;;;;;24.54;28.93;100980.50;4927576;29;20424;-74
2022/05/16 01:55:44;;;;;;;4.43;2.90;;;;;;;24.51;28.44;100978.09;5028718;28;20933;-75
2022/05/16 01:58:12;;;;;;;3.78;2.55;;;;;;;24.51;28.46;100978.09;5058767;28;20040;-74
2022/05/16 02:00:39;;;;;;;5.45;2.38;;;;;;;24.48;28.52;100971.00;5068242;28;20052;-74
2022/05/16 02:03:07;;;;;;;4.80;2.25;;;;;;;24.48;29.00;100967.38;5065316;28;20094;-74
2022/05/16 02:05:34;;;;;;;4.32;2.65;;;;;;;24.45;29.15;100974.19;5058012;28;20045;-75
2022/05/16 02:08:01;;;;;;;4.18;2.60;;;;;;;24.43;28.55;100972.63;5058736;28;20391;-74
2022/05/16 02:10:29;;;;;;;4.53;2.80;;;;;;;24.42;28.56;100963.44;5062380;28;20505;-75
2022/05/16 02:12:57;;;;;;;4.53;2.50;;;;;;;24.41;28.68;100960.84;5054835;28;20064;-75
2022/05/16 02:15:26;;;;;;;5.55;2.90;;;;;;;24.40;28.93;100956.34;5053842;28;20108;-73
2022/05/16 02:17:53;;;;;;;6.63;3.10;;;;;;;24.37;29.20;100951.19;5047009;28;20052;-75
2022/05/16 02:20:20;;;;;;;5.28;2.65;;;;;;;24.35;28.74;100944.97;5075336;28;20053;-73
2022/05/16 02:25:34;;;;;;;4.32;2.63;;;;;;;24.30;28.74;100948.28;5054539;28;20037;-74
2022/05/16 02:28:00;;;;;;;4.82;2.58;;;;;;;24.27;28.41;100948.69;5054962;28;20090;-75
2022/05/16 02:30:27;;;;;;;4.25;2.60;;;;;;;24.26;28.88;100944.19;5054261;28;20053;-75
2022/05/16 02:32:55;;;;;;;4.45;2.72;;;;;;;24.23;29.12;100939.88;5052937;28;20052;-75
2022/05/16 02:35:23;;;;;;;3.85;2.65;;;;;;;24.21;29.02;100936.41;5054167;28;20814;-74
2022/05/16 02:37:50;;;;;;;4.55;2.45;;;;;;;24.18;28.91;100931.25;5039702;28;20041;-74
2022/05/16 02:40:17;;;;;;;5.00;2.70;;;;;;;24.16;29.45;100930.56;5044454;28;20636;-73
2022/05/16 02:42:43;;;;;;;4.40;2.80;;;;;;;24.14;29.03;100932.66;5059317;28;20048;-74
2022/05/16 02:45:10;;;;;;;6.68;2.97;;;;;;;24.12;29.21;100925.59;5049153;28;20045;-75
2022/05/16 02:47:37;;;;;;;8.80;2.90;;;;;;;24.09;29.11;100917.63;5052097;28;20048;-75
2022/05/16 02:50:04;;;;;;;3.78;2.40;;;;;;;24.08;29.23;100929.78;5055840;28;20466;-75
2022/05/16 02:52:31;;;;;;;3.80;2.72;;;;;;;24.05;29.40;100917.13;5065227;28;20097;-75
2022/05/16 02:55:00;;;;;;;5.25;2.70;;;;;;;24.03;29.46;100916.47;5056158;28;20049;-74
2022/05/16 02:57:28;;;;;;;5.00;2.72;;;;;;;24.03;29.29;100926.72;5058676;28;20040;-73
2022/05/16 02:59:56;;;;;;;4.00;2.42;;;;;;;24.00;29.42;100921.53;5052228;28;20126;-75
2022/05/16 03:02:23;;;;;;;5.63;2.80;;;;;;;23.99;29.82;100925.34;5056678;28;20044;-75
2022/05/16 03:04:50;;;;;;;4.23;2.67;;;;;;;23.97;29.79;100927.44;5056056;28;20347;-74
2022/05/16 03:07:18;;;;;;;4.00;2.72;;;;;;;23.95;29.43;100922.09;5062445;28;20730;-74
2022/05/16 03:09:46;;;;;;;4.10;2.83;;;;;;;23.94;29.94;100922.28;5057324;28;20076;-74
2022/05/16 03:12:13;;;;;;;6.20;2.95;;;;;;;23.90;29.42;100925.44;5053343;28;20056;-75
2022/05/16 03:14:40;;;;;;;5.85;2.60;;;;;;;23.88;29.61;100933.06;5054600;28;20048;-74
2022/05/16 03:17:07;;;;;;;4.85;2.90;;;;;;;23.87;29.86;100919.41;5052231;28;20052;-75
2022/05/16 03:19:35;;;;;;;5.05;2.90;;;;;;;23.85;29.97;100919.59;5049892;28;20049;-75
2022/05/16 03:22:04;;;;;;;5.47;2.58;;;;;;;23.86;29.74;100917.69;5049524;28;20040;-74
2022/05/16 03:24:32;;;;;;;4.82;2.55;;;;;;;23.82;29.98;100911.63;5062095;28;20459;-75
2022/05/16 03:26:59;;;;;;;3.80;2.78;;;;;;;23.81;29.91;100915.47;5056166;28;20057;-74
2022/05/16 03:29:26;;;;;;;6.00;3.10;;;;;;;23.80;29.76;100915.66;5054279;28;20541;-74
2022/05/16 03:31:55;;;;;;;6.25;3.08;;;;;;;23.79;30.34;100920.34;5054769;28;20501;-74
2022/05/16 03:34:22;;;;;;;4.85;2.92;;;;;;;23.76;30.07;100917.94;5054572;28;20464;-75
2022/05/16 03:36:49;;;;;;;6.75;3.08;;;;;;;23.75;30.08;100915.34;5047642;28;20055;-74
2022/05/16 03:42:06;;;;;;;4.82;2.90;;;;;;;23.69;29.96;100913.31;5070226;28;20098;-75
2022/05/16 03:44:33;;;;;;;5.00;3.05;;;;;;;23.68;30.11;100911.59;5052292;28;20040;-74
2022/05/16 03:47:00;;;;;;;5.10;2.63;;;;;;;23.66;30.43;100908.16;5042883;28;20044;-75
2022/05/16 03:49:26;;;;;;;5.55;3.00;;;;;;;23.65;29.85;100914.72;5056650;28;20055;-75
2022/05/16 03:51:53;;;;;;;5.10;2.92;;;;;;;23.63;30.41;100922.41;5047551;28;20045;-74
2022/05/16 03:54:20;;;;;;;4.65;3.13;;;;;;;23.61;30.23;100917.03;5043815;28;20057;-74
2022/05/16 03:56:46;;;;;;;4.35;2.92;;;;;;;23.60;30.42;100907.00;5060091;28;21936;-74
2022/05/16 03:59:13;;;;;;;4.90;2.90;;;;;;;23.59;30.27;100909.94;5069754;28;20074;-75
2022/05/16 04:01:40;;;;;;;3.83;2.72;;;;;;;23.56;30.21;100902.84;5045370;28;20048;-74
2022/05/16 04:04:10;;;;;;;6.47;3.17;;;;;;;23.56;30.28;100907.53;5056089;28;20072;-75
2022/05/16 04:06:37;;;;;;;6.10;3.00;;;;;;;23.54;30.51;100904.09;5051270;28;20674;-75
2022/05/16 04:09:04;;;;;;;4.43;2.95;;;;;;;23.51;30.67;100897.88;5054466;28;20101;-75
2022/05/16 04:11:31;;;;;;;4.47;3.00;;;;;;;23.49;30.34;100899.09;5058673;28;20110;-75
2022/05/16 04:13:58;;;;;;;5.45;3.22;;;;;;;23.47;30.63;100901.19;5043734;28;20469;-75
2022/05/16 04:16:24;;;;;;;4.57;2.90;;;;;;;23.46;30.63;100896.69;5038180;28;20048;-74
2022/05/16 04:18:52;;;;;;;4.40;2.60;;;;;;;23.43;30.70;100891.50;5082204;28;20044;-75
2022/05/16 04:21:19;;;;;;;4.65;2.88;;;;;;;23.41;30.84;100888.91;5060112;28;20493;-75
2022/05/16 04:23:45;;;;;;;4.78;3.08;;;;;;;23.40;30.87;100892.72;5058864;28;20045;-74
2022/05/16 04:26:12;;;;;;;4.68;2.80;;;;;;;23.39;30.37;100904.03;5054601;28;20086;-75
2022/05/16 04:28:39;;;;;;;4.63;3.20;;;;;;;23.38;30.42;100903.16;5050193;28;20052;-74
2022/05/16 04:31:08;;;;;;;5.25;2.80;;;;;;;23.40;31.18;100891.84;5080774;28;20125;-75
2022/05/16 04:33:35;;;;;;;5.05;2.97;;;;;;;23.36;30.92;100901.59;5036681;28;20387;-74
2022/05/16 04:36:02;;;;;;;5.05;2.92;;;;;;;23.36;30.88;100893.28;5047120;28;20443;-75
2022/05/16 04:38:29;;;;;;;4.40;2.75;;;;;;;23.35;31.06;100900.75;5054711;28;20094;-74
2022/05/16 04:43:41;;;;;;;5.20;2.55;;;;;;;23.34;31.08;100899.00;5063851;28;20052;-75
2022/05/16 04:46:11;;;;;;;6.18;2.80;;;;;;;23.38;31.00;100899.53;5054039;28;20048;-75
2022/05/16 04:48:38;;;;;;;6.15;2.75;;;;;;;23.34;30.70;100885.16;5073703;28;20490;-75
2022/05/16 04:51:05;;;;;;;6.28;2.88;;;;;;;23.34;31.25;100890.69;5058213;28;20090;-75
2022/05/16 04:53:31;;;;;;;5.32;2.90;;;;;;;23.36;31.23;100893.28;5055103;28;20052;-76
2022/05/16 04:55:59;;;;;;;4.82;2.80;;;;;;;23.38;31.25;100885.66;5086193;28;20097;-75
2022/05/16 04:58:26;;;;;;;8.75;3.55;;;;;;;23.39;30.86;100890.16;5058188;28;20097;-76
2022/05/16 05:00:52;;;;;;;5.47;2.70;;;;;;;23.40;30.88;100894.63;5063548;28;20625;-76
2022/05/16 05:03:19;;;;;;;4.88;2.78;;;;;;;23.41;31.17;100893.59;5064349;28;20060;-76
2022/05/16 05:05:46;;;;;;;4.30;2.85;;;;;;;23.44;31.67;100902.41;5050668;28;20463;-75
2022/05/16 05:08:13;;;;;;;5.50;2.70;;;;;;;23.47;31.25;100901.19;5049393;28;20099;-76
2022/05/16 05:16:19;;;;;;;7.00;2.95;;;;;;;23.85;31.66;100919.59;5074329;28;20097;-77
2022/05/16 05:18:46;;;;;;;5.60;3.00;;;;;;;24.03;31.49;100913.72;5057597;28;20056;-76
2022/05/16 05:21:13;;;;;;;4.10;2.55;;;;;;;24.24;31.47;100913.00;5060677;28;20045;-75
2022/05/16 05:23:40;;;;;;;5.97;2.92;;;;;;;24.48;31.03;100912.72;5055301;28;20552;-76
2022/05/16 05:26:09;;;;;;;5.45;2.50;;;;;;;24.74;30.89;100925.25;5063561;28;20051;-74
2022/05/16 05:28:37;;;;;;;4.72;2.83;;;;;;;24.93;30.16;100921.91;5053622;28;20048;-76
2022/05/16 05:31:04;;;;;;;5.80;2.80;;;;;;;25.12;30.05;100918.50;5055730;28;20044;-76
2022/05/16 05:33:30;;;;;;;5.63;2.88;;;;;;;25.27;29.77;100915.69;5055864;28;20444;-75
2022/05/16 05:35:57;;;;;;;4.43;2.60;;;;;;;25.39;29.82;100914.97;5088286;28;20418;-74
2022/05/16 05:38:24;;;;;;;4.65;2.53;;;;;;;25.47;29.56;100918.69;5050990;28;20094;-75
2022/05/16 05:40:50;;;;;;;4.78;2.50;;;;;;;25.52;29.66;100919.81;5055085;28;20045;-68
2022/05/16 05:43:17;;;;;;;6.57;2.65;;;;;;;25.56;28.92;100923.91;5047230;28;20398;-67
2022/05/16 05:45:47;;;;;;;6.22;2.40;;;;;;;25.57;29.29;100927.56;5056174;28;20098;-67
2022/05/16 05:48:18;;;;;;;5.18;2.53;;;;;;;25.57;29.06;100922.00;5052149;28;20048;-66
2022/05/16 05:50:45;;;;;;;4.60;2.22;;;;;;;25.57;29.37;100928.41;5051438;28;20502;-67
2022/05/16 05:53:11;;;;;;;3.97;2.40;;;;;;;25.56;28.80;100923.06;5054198;28;20048;-66
2022/05/16 05:55:39;;;;;;;4.68;2.38;;;;;;;25.53;29.46;100920.69;5056314;28;20522;-66
2022/05/16 05:58:06;;;;;;;3.60;2.40;;;;;;;25.53;28.83;100926.25;5045363;28;20447;-67
2022/05/16 06:00:35;;;;;;;4.38;2.60;;;;;;;25.51;28.92;100929.22;5057262;28;20085;-67
2022/05/16 06:03:02;;;;;;;4.57;2.40;;;;;;;25.50;29.33;100935.84;5048267;28;20044;-68
2022/05/16 06:05:28;;;;;;;4.47;2.55;;;;;;;25.51;29.07;100931.13;5049358;28;20045;-68
2022/05/16 06:07:55;;;;;;;4.93;2.40;;;;;;;25.50;28.83;100933.06;5046018;28;20041;-68
2022/05/16 06:10:22;;;;;;;5.05;2.47;;;;;;;25.51;28.38;100936.69;5057106;28;21111;-68
2022/05/16 06:12:48;;;;;;;4.07;2.50;;;;;;;25.50;28.64;100938.63;5085265;28;20051;-68
2022/05/16 06:15:15;;;;;;;4.90;2.45;;;;;;;25.50;28.99;100933.06;5059351;28;20452;-69
2022/05/16 06:17:43;;;;;;;5.97;2.67;;;;;;;25.49;29.22;100936.03;5052814;28;20044;-68
2022/05/16 06:20:11;;;;;;;5.35;2.70;;;;;;;25.50;28.64;100933.06;5055815;28;20040;-68
2022/05/16 06:22:38;;;;;;;5.13;2.33;;;;;;;25.47;29.05;100936.22;5059678;28;20489;-68
2022/05/16 06:27:55;;;;;;;6.47;2.30;;;;;;;25.46;28.95;100944.75;5074777;28;20040;-68
2022/05/16 06:30:22;;;;;;;4.68;2.22;;;;;;;25.45;28.74;100954.19;5064117;28;20529;-70
2022/05/16 06:32:49;;;;;;;4.72;2.53;;;;;;;25.43;29.05;100956.28;5048110;28;20045;-68
2022/05/16 06:35:17;;;;;;;4.38;2.38;;;;;;;25.44;28.72;100958.00;5047946;28;20110;-69
2022/05/16 06:37:44;;;;;;;4.65;2.47;;;;;;;25.40;28.81;100955.63;5063355;28;20040;-71
2022/05/16 06:40:13;;;;;;;6.05;2.35;;;;;;;25.40;29.26;100963.94;5040891;28;20654;-69
2022/05/16 06:42:40;;;;;;;5.75;2.58;;;;;;;25.38;28.94;100967.97;5050041;28;20082;-70
2022/05/16 06:45:07;;;;;;;4.15;2.40;;;;;;;25.37;29.33;100960.69;5054426;28;20777;-67
2022/05/16 06:47:34;;;;;;;5.07;2.40;;;;;;;25.36;29.53;100970.97;5049666;28;20056;-69
2022/05/16 06:50:01;;;;;;;3.70;2.25;;;;;;;25.37;29.59;100981.00;5055940;28;20482;-66
2022/05/16 06:52:28;;;;;;;7.15;2.50;;;;;;;25.38;29.44;100984.66;5059302;28;20048;-66
2022/05/16 06:54:55;;;;;;;5.72;2.47;;;;;;;25.38;29.24;100988.28;5049365;28;20056;-66
2022/05/16 06:57:21;;;;;;;5.50;2.30;;;;;;;25.41;28.93;100995.41;5058471;28;20451;-75
2022/05/16 06:59:48;;;;;;;5.20;2.38;;;;;;;25.43;29.25;101006.31;5055523;28;20048;-76
2022/05/16 07:02:15;;;;;;;5.80;2.80;;;;;;;25.45;29.35;100993.94;5052473;28;20040;-75
2022/05/16 07:04:42;;;;;;;4.30;2.28;;;;;;;25.49;29.15;101000.84;5062744;28;20059;-75
2022/05/16 07:07:09;;;;;;;5.65;2.55;;;;;;;25.53;29.51;101010.50;5053910;28;20090;-76
2022/05/16 07:09:39;;;;;;;5.30;2.67;;;;;;;25.58;29.53;101009.91;5062727;28;20044;-76
2022/05/16 07:12:08;;;;;;;3.83;2.22;;;;;;;25.64;29.69;101009.16;5049221;28;20051;-76
2022/05/16 07:14:38;;;;;;;4.50;2.25;;;;;;;25.67;29.31;101003.22;5061039;28;20040;-75
2022/05/16 07:17:06;;;;;;;5.30;2.63;;;;;;;25.71;29.28;101008.16;5051168;28;20571;-76
2022/05/16 07:19:35;;;;;;;5.72;2.60;;;;;;;25.77;29.73;101014.88;5053479;28;20049;-76
2022/05/16 07:22:14;;;;;;;6.05;3.03;;;;;;;25.83;29.65;101022.44;5059806;28;20127;-76
2022/05/16 07:24:43;;;;;;;5.20;2.40;;;;;;;25.84;29.21;101026.94;5043364;28;20052;-76
2022/05/16 07:29:57;;;;;;;4.38;2.42;;;;;;;25.87;29.58;101032.09;5086325;28;20106;-76
2022/05/16 07:32:37;;;;;;;4.07;2.35;;;;;;;25.94;29.09;101040.53;5056127;28;20666;-76
2022/05/16 07:35:05;;;;;;;4.82;2.33;;;;;;;25.92;29.32;101046.28;5063715;28;20056;-76
2022/05/16 07:37:31;;;;;;;5.75;2.22;;;;;;;25.92;30.17;101042.63;5062623;28;20414;-76
2022/05/16 07:39:58;;;;;;;4.07;2.30;;;;;;;25.94;30.05;101046.09;5049934;28;20161;-76
2022/05/16 07:42:25;;;;;;;5.43;2.63;;;;;;;25.94;29.98;101046.97;5075528;28;20402;-76
2022/05/16 07:44:52;;;;;;;4.57;2.63;;;;;;;25.94;30.57;101048.88;5059112;28;20135;-75
2022/05/16 07:47:19;;;;;;;6.28;3.08;;;;;;;25.92;30.13;101057.41;5055401;28;20048;-75
2022/05/16 07:49:46;;;;;;;5.03;2.70;;;;;;;25.90;30.23;101045.63;5070658;28;20048;-76
2022/05/16 07:52:12;;;;;;;4.85;2.67;;;;;;;25.87;30.45;101062.69;5050459;28;20052;-76
2022/05/16 07:54:39;;;;;;;5.47;2.70;;;;;;;25.84;30.88;101063.09;5055510;28;20048;-75
2022/05/16 07:57:05;;;;;;;4.85;2.72;;;;;;;25.80;30.85;101072.88;5054997;28;20090;-78
2022/05/16 07:59:32;;;;;;;4.43;2.50;;;;;;;25.76;30.95;101078.00;5050117;28;20090;-76
2022/05/16 08:01:59;;;;;;;6.18;2.58;;;;;;;25.71;30.90;101072.13;5047916;28;20107;-75
2022/05/16 08:04:26;;;;;;;6.47;2.60;;;;;;;25.68;31.66;101080.91;5064734;28;20041;-77
2022/05/16 08:06:52;;;;;;;6.75;2.65;;;;;;;25.65;31.84;101084.06;5052738;28;20044;-77
2022/05/16 08:12:06;;;;;;;5.35;2.80;;;;;;;25.54;31.89;101092.84;5060123;28;20052;-77
2022/05/16 08:14:33;;;;;;;5.93;2.58;;;;;;;25.53;32.28;101093.06;5050677;28;20395;-76
2022/05/16 08:17:00;;;;;;;5.63;2.83;;;;;;;25.48;32.26;101088.06;5056221;28;20109;-77
2022/05/16 08:19:29;;;;;;;6.25;3.17;;;;;;;25.44;32.24;101091.44;5053607;28;20044;-77
2022/05/16 08:21:55;;;;;;;5.57;2.90;;;;;;;25.40;32.70;101088.19;5046906;28;20044;-77
2022/05/16 08:24:22;;;;;;;6.13;3.50;;;;;;;25.36;32.24;101086.88;5068755;28;20087;-75
2022/05/16 08:26:49;;;;;;;4.47;2.78;;;;;;;25.32;32.32;101089.16;5084576;28;20053;-75
2022/05/16 08:29:16;;;;;;;6.18;2.90;;;;;;;25.27;32.63;101079.69;5051486;28;20040;-75
2022/05/16 08:31:42;;;;;;;5.80;2.80;;;;;;;25.24;32.67;101091.16;5060753;28;20056;-76
2022/05/16 08:34:09;;;;;;;4.07;2.80;;;;;;;25.18;33.04;101076.13;5049556;28;20516;-77
2022/05/16 08:42:09;;;;;;;7.68;2.83;;;;;;;25.04;33.34;101071.41;5068632;28;20052;-78
2022/05/16 08:45:00;;;;;;;5.97;3.08;;;;;;;24.98;33.87;101072.19;5062442;28;20405;-78
2022/05/16 08:47:45;;;;;;;5.45;2.63;;;;;;;24.91;33.44;101060.13;5061267;28;20059;-78
2022/05/16 08:50:32;;;;;;;4.88;2.85;;;;;;;24.89;34.27;101062.19;5073407;28;20040;-77
2022/05/16 08:53:13;;;;;;;4.53;2.58;;;;;;;24.85;34.94;101067.28;5055092;28;20041;-77
2022/05/16 08:55:52;;;;;;;5.03;2.92;;;;;;;24.82;35.21;101066.78;5069936;28;20593;-77
2022/05/16 08:58:37;;;;;;;5.68;2.58;;;;;;;24.81;35.94;101073.38;5057733;28;20041;-77
2022/05/16 09:01:11;;;;;;;4.57;2.97;;;;;;;24.79;35.79;101075.50;5061039;28;20478;-76
2022/05/16 09:03:50;;;;;;;4.65;2.78;;;;;;;24.80;35.88;101080.84;5071898;28;20156;-76
2022/05/16 09:06:22;;;;;;;4.75;2.83;;;;;;;24.79;36.16;101079.13;5084697;28;20041;-77
2022/05/16 09:08:55;;;;;;;5.40;2.83;;;;;;;24.80;36.09;101078.06;5065318;28;20051;-74
2022/05/16 09:11:35;;;;;;;5.55;2.92;;;;;;;24.85;36.55;101080.31;5054251;28;20094;-75
2022/05/16 09:14:28;;;;;;;5.47;2.78;;;;;;;24.91;36.74;101087.91;5058686;28;20051;-74
2022/05/16 09:17:28;;;;;;;5.10;3.05;;;;;;;24.96;36.66;101080.72;5074079;28;20421;-75
2022/05/16 09:20:25;;;;;;;4.57;2.90;;;;;;;25.04;36.46;101082.53;5061469;28;20039;-75
2022/05/16 09:23:29;;;;;;;4.18;2.90;;;;;;;25.12;36.67;101071.31;5065427;28;20449;-76
2022/05/16 09:26:11;;;;;;;5.38;2.90;;;;;;;25.22;36.35;101068.25;5035028;28;20506;-75
2022/05/16 09:28:45;;;;;;;5.15;2.70;;;;;;;25.29;36.11;101067.28;5065377;28;20321;-75
2022/05/16 09:31:28;;;;;;;4.85;3.00;;;;;;;25.43;36.15;101065.56;5063767;28;20079;-75
2022/05/16 09:33:59;;;;;;;5.75;3.00;;;;;;;25.53;35.60;101066.09;5068938;28;20116;-75
2022/05/16 09:36:33;;;;;;;4.03;2.97;;;;;;;25.69;35.32;101070.63;5059674;28;20052;-75
2022/05/16 09:39:00;;;;;;;6.03;3.08;;;;;;;25.78;35.28;101064.72;5069039;28;20098;-75
2022/05/16 09:41:34;;;;;;;5.53;2.90;;;;;;;25.97;35.50;101066.03;5057843;28;20056;-75
2022/05/16 09:44:11;;;;;;;4.00;2.78;;;;;;;26.10;34.76;101066.19;5057929;28;20456;-74
2022/05/16 09:46:41;;;;;;;5.07;2.50;;;;;;;26.27;35.12;101060.38;5061865;28;20798;-75
2022/05/16 09:49:18;;;;;;;4.90;2.60;;;;;;;26.46;34.17;101073.59;5058512;28;20063;-74
2022/05/16 09:51:56;;;;;;;5.22;2.78;;;;;;;26.66;34.58;101071.84;5050179;28;20584;-74
2022/05/16 09:54:32;;;;;;;5.57;3.00;;;;;;;26.85;34.49;101068.31;5069833;28;20098;-75
2022/05/16 09:57:20;;;;;;;5.35;2.80;;;;;;;27.04;33.95;101069.56;5096129;28;20041;-74
2022/05/16 09:59:58;;;;;;;5.15;3.10;;;;;;;27.26;34.04;101073.97;5069409;28;20786;-74
2022/05/16 10:02:31;;;;;;;6.15;3.28;;;;;;;27.45;33.76;101066.78;5060800;28;20083;-73
2022/05/16 10:05:21;;;;;;;5.63;2.70;;;;;;;27.68;33.82;101074.84;5049973;28;20140;-74
2022/05/16 10:07:57;;;;;;;6.53;2.75;;;;;;;27.87;33.48;101079.66;5055046;28;20052;-74
2022/05/16 10:10:28;;;;;;;5.13;3.38;;;;;;;28.10;33.21;101078.41;5053620;28;20070;-74
2022/05/16 10:12:56;;;;;;;4.20;2.78;;;;;;;28.26;33.37;101070.50;5054614;28;20060;-74
2022/05/16 10:15:23;;;;;;;5.55;2.60;;;;;;;28.45;33.09;101074.41;5056479;28;20048;-73
2022/05/16 10:17:54;;;;;;;6.75;2.90;;;;;;;28.66;32.96;101074.19;5050469;28;20501;-74
2022/05/16 10:20:28;;;;;;;4.93;3.00;;;;;;;28.89;32.02;101079.38;5055563;28;20437;-73
2022/05/16 10:22:59;;;;;;;4.97;2.47;;;;;;;29.06;32.21;101080.66;5047291;28;20056;-73
2022/05/16 10:25:36;;;;;;;4.07;2.63;;;;;;;29.27;32.08;101078.66;5047228;28;20132;-75
2022/05/16 10:28:08;;;;;;;4.57;2.70;;;;;;;29.45;32.01;101078.84;5050510;28;20048;-74
2022/05/16 10:33:24;;;;;;;;;;;;;;;29.30;32.52;101087.47;5036994;28;20454;-74
2022/05/16 10:33:26;;;;;;;4.80;2.38;;;;;;;29.81;31.80;101089.47;5078984;28;20453;-74
2022/05/16 10:36:04;;;;;;;5.05;2.42;;;;;;;30.07;30.96;101086.53;5070511;28;20051;-74
2022/05/16 10:38:38;;;;;;;5.25;2.85;;;;;;;30.21;31.03;101079.78;5045578;28;20090;-74
2022/05/16 10:41:11;;;;;;;3.80;2.67;;;;;;;30.42;30.14;101081.31;5041216;28;20056;-73
2022/05/16 10:44:02;;;;;;;4.43;2.50;;;;;;;30.58;29.72;101082.75;5053777;28;20064;-73
2022/05/16 10:46:34;;;;;;;4.93;2.40;;;;;;;30.70;29.85;101082.88;5073544;28;20079;-74
2022/05/16 10:49:03;;;;;;;5.20;2.75;;;;;;;30.81;29.40;101077.34;5056463;28;20051;-75
2022/05/16 10:51:54;;;;;;;4.53;2.40;;;;;;;30.95;29.19;101076.16;5056712;28;20048;-74
2022/05/16 10:54:27;;;;;;;4.75;2.40;;;;;;;31.06;29.52;101073.66;5086354;28;20063;-74
2022/05/16 10:57:13;;;;;;;4.88;2.50;;;;;;;31.14;29.11;101085.47;5060229;28;20056;-75
2022/05/16 10:59:52;;;;;;;3.55;2.38;;;;;;;31.29;28.50;101080.38;5056764;28;20048;-73
2022/05/16 11:02:22;;;;;;;4.03;1.98;;;;;;;31.42;28.46;101082.16;5040440;28;20473;-74
2022/05/16 11:05:10;;;;;;;2.90;2.05;;;;;;;31.56;28.42;101080.03;5050241;28;20052;-74
2022/05/16 11:07:58;;;;;;;2.70;1.85;;;;;;;31.70;27.88;101076.00;5043203;28;20076;-74
2022/05/16 11:11:09;;;;;;;3.95;2.15;;;;;;;31.83;28.00;101080.59;5051023;28;20531;-74
2022/05/16 11:13:48;;;;;;;3.50;1.80;;;;;;;32.01;27.38;101066.50;5060662;28;20041;-74
2022/05/16 11:16:21;;;;;;;3.75;2.10;;;;;;;32.14;27.11;101075.59;5067432;28;20045;-74
2022/05/16 11:19:05;;;;;;;4.07;2.20;;;;;;;32.28;26.71;101065.03;5057621;28;20745;-74
2022/05/16 11:21:56;;;;;;;3.42;1.90;;;;;;;32.39;26.54;101071.78;5062679;28;20123;-75
2022/05/16 11:24:52;;;;;;;2.60;1.70;;;;;;;32.47;26.57;101063.84;5058045;28;20055;-74
2022/05/16 11:27:48;;;;;;;3.08;1.95;;;;;;;32.52;26.59;101067.91;5051589;28;20131;-75
2022/05/16 11:30:15;;;;;;;3.70;1.95;;;;;;;32.61;26.38;101060.84;5016414;28;20520;-74
2022/05/16 11:32:51;;;;;;;3.33;1.98;;;;;;;32.71;26.20;101069.53;5056249;28;20055;-74
2022/05/16 11:35:24;;;;;;;4.38;2.08;;;;;;;32.72;26.05;101066.47;5050246;28;20090;-75
2022/05/16 11:37:58;;;;;;;3.83;2.20;;;;;;;32.74;25.60;101064.28;5052127;28;20047;-74
2022/05/16 11:40:40;;;;;;;4.05;2.17;;;;;;;32.77;25.79;101063.81;5065577;28;20464;-74
2022/05/16 11:43:32;;;;;;;3.53;2.05;;;;;;;32.78;25.76;101068.31;5053474;28;20051;-74
2022/05/16 11:46:36;;;;;;;3.45;2.00;;;;;;;32.72;25.75;101069.28;5056347;28;20058;-75
2022/05/16 11:49:36;;;;;;;5.57;2.45;;;;;;;32.72;25.54;101065.63;5074156;28;20052;-74
2022/05/16 11:52:48;;;;;;;5.13;2.35;;;;;;;32.70;25.75;101074.31;5054620;28;20040;-74
2022/05/16 12:01:28;;;;;;;5.63;2.70;;;;;;;32.53;26.70;101066.81;5073127;28;20055;-75
2022/05/16 12:04:13;;;;;;;4.50;2.42;;;;;;;32.54;26.89;101066.53;5068560;28;20135;-74
2022/05/16 12:06:53;;;;;;;4.07;2.28;;;;;;;32.55;26.99;101064.59;5066712;28;20119;-75
2022/05/16 12:09:31;;;;;;;4.75;2.20;;;;;;;32.52;26.42;101065.09;5057414;28;20497;-75
2022/05/16 12:12:13;;;;;;;4.35;2.10;;;;;;;32.49;26.41;101063.63;5050947;28;20055;-76
2022/05/16 12:14:41;;;;;;;;;;;;;;;32.13;27.13;101059.81;5050348;28;20460;-74
2022/05/16 12:17:15;;;;;;;5.20;2.33;;;;;;;32.41;26.56;101062.00;5053549;28;19924;-76
2022/05/16 12:19:43;;;;;;;4.32;2.17;;;;;;;32.38;26.74;101059.66;5052981;28;20048;-76
2022/05/16 12:22:21;;;;;;;4.85;2.25;;;;;;;32.40;26.67;101056.63;5044592;28;20045;-76